createdAt,value
2019-03-20T00:00:36.828Z,46.37
2019-03-20T00:03:05.645Z,44.73
2019-03-20T00:05:34.274Z,46.42
2019-03-20T00:08:02.940Z,46.90
2019-03-20T00:10:31.812Z,46.33
2019-03-20T00:13:00.497Z,45.92
2019-03-20T00:15:29.189Z,45.75
2019-03-20T00:17:57.797Z,43.25
2019-03-20T00:20:26.415Z,44.33
2019-03-20T00:22:55.273Z,44.77
2019-03-20T00:25:23.900Z,45.83
2019-03-20T00:27:52.572Z,45.05
2019-03-20T00:30:21.195Z,44.03
2019-03-20T00:32:49.875Z,45.12
2019-03-20T00:35:18.556Z,44.08
2019-03-20T00:37:47.188Z,45.12
2019-03-20T00:40:15.916Z,44.13
2019-03-20T00:42:44.526Z,44.15
2019-03-20T00:45:13.297Z,44.03
2019-03-20T00:47:42.165Z,44.38
2019-03-20T00:50:13.578Z,44.55
2019-03-20T00:52:42.526Z,43.05
2019-03-20T00:55:11.337Z,42.27
2019-03-20T00:57:39.948Z,42.45
2019-03-20T01:00:11.913Z,42.85
2019-03-20T01:02:40.821Z,42.60
2019-03-20T01:05:12.766Z,42.40
2019-03-20T01:07:39.761Z,42.00
2019-03-20T01:10:10.172Z,42.13
2019-03-20T01:12:38.829Z,42.15
2019-03-20T01:15:08.395Z,39.95
2019-03-20T01:17:37.077Z,41.83
2019-03-20T01:20:05.794Z,41.05
2019-03-20T01:22:34.381Z,41.42
2019-03-20T01:25:03.264Z,42.53
2019-03-20T01:27:31.948Z,41.95
2019-03-20T01:30:00.575Z,41.23
2019-03-20T01:32:29.269Z,40.78
2019-03-20T01:34:57.889Z,41.25
2019-03-20T01:37:26.858Z,40.30
2019-03-20T01:39:56.031Z,39.42
2019-03-20T01:42:24.966Z,40.83
2019-03-20T01:44:53.562Z,39.65
2019-03-20T01:47:22.185Z,38.48
2019-03-20T01:49:50.862Z,38.85
2019-03-20T01:52:19.821Z,39.05
2019-03-20T01:54:48.429Z,39.50
2019-03-20T01:57:17.152Z,40.95
2019-03-20T01:59:46.089Z,39.03
2019-03-20T02:02:14.780Z,39.00
2019-03-20T02:04:43.377Z,39.73
2019-03-20T02:07:12.342Z,39.78
2019-03-20T02:09:41.076Z,39.58
2019-03-20T02:12:09.697Z,39.70
2019-03-20T02:14:38.553Z,38.05
2019-03-20T02:17:07.168Z,36.73
2019-03-20T02:19:36.021Z,38.02
2019-03-20T02:22:04.712Z,38.50
2019-03-20T02:24:33.318Z,38.83
2019-03-20T02:27:02.014Z,39.18
2019-03-20T02:29:30.755Z,39.18
2019-03-20T02:31:59.369Z,37.98
2019-03-20T02:34:28.075Z,35.55
2019-03-20T02:36:56.929Z,36.58
2019-03-20T02:39:25.525Z,37.83
2019-03-20T02:41:54.210Z,38.50
2019-03-20T02:44:23.153Z,37.17
2019-03-20T02:46:52.043Z,35.48
2019-03-20T02:49:20.716Z,36.80
2019-03-20T02:51:49.401Z,37.60
2019-03-20T02:54:18.081Z,35.95
2019-03-20T02:56:46.696Z,36.60
2019-03-20T02:59:15.626Z,37.17
2019-03-20T03:01:44.321Z,36.08
2019-03-20T03:04:13.541Z,36.08
2019-03-20T03:06:42.219Z,36.48
2019-03-20T03:09:10.884Z,36.23
2019-03-20T03:11:39.507Z,36.83
2019-03-20T03:14:08.194Z,35.90
2019-03-20T03:16:36.879Z,35.63
2019-03-20T03:19:05.559Z,35.58
2019-03-20T03:21:34.250Z,35.92
2019-03-20T03:24:02.915Z,33.83
2019-03-20T03:26:31.883Z,33.95
2019-03-20T03:29:00.558Z,34.70
2019-03-20T03:31:29.234Z,35.08
2019-03-20T03:33:58.209Z,33.40
2019-03-20T03:36:26.875Z,35.43
2019-03-20T03:38:55.556Z,34.75
2019-03-20T03:41:24.151Z,33.15
2019-03-20T03:43:52.809Z,33.30
2019-03-20T03:46:21.473Z,33.38
2019-03-20T03:48:50.434Z,34.45
2019-03-20T03:51:19.369Z,33.18
2019-03-20T03:53:48.310Z,33.30
2019-03-20T03:56:17.348Z,32.55
2019-03-20T03:58:46.041Z,32.53
2019-03-20T04:01:14.730Z,33.65
2019-03-20T04:03:43.401Z,34.15
2019-03-20T04:06:12.318Z,32.45
2019-03-20T04:08:41.231Z,32.00
2019-03-20T04:11:09.900Z,33.35
2019-03-20T04:13:38.588Z,33.40
2019-03-20T04:16:07.516Z,33.25
2019-03-20T04:18:36.220Z,32.25
2019-03-20T04:21:05.175Z,31.77
2019-03-20T04:23:33.865Z,31.80
2019-03-20T04:26:02.551Z,31.33
2019-03-20T04:28:31.236Z,31.93
2019-03-20T04:30:59.946Z,31.90
2019-03-20T04:33:28.577Z,31.55
2019-03-20T04:35:57.277Z,30.57
2019-03-20T04:38:25.888Z,30.02
2019-03-20T04:40:54.569Z,30.82
2019-03-20T04:43:23.457Z,29.80
2019-03-20T04:45:52.148Z,30.23
2019-03-20T04:48:20.989Z,31.00
2019-03-20T04:50:49.604Z,29.15
2019-03-20T04:53:18.276Z,31.40
2019-03-20T04:55:46.896Z,30.00
2019-03-20T04:58:15.501Z,30.77
2019-03-20T05:00:44.160Z,30.52
2019-03-20T05:03:12.769Z,30.85
2019-03-20T05:05:41.436Z,29.72
2019-03-20T05:08:10.359Z,29.52
2019-03-20T05:10:39.036Z,29.63
2019-03-20T05:13:07.656Z,30.12
2019-03-20T05:15:36.252Z,29.90
2019-03-20T05:18:04.877Z,30.25
2019-03-20T05:20:33.492Z,29.80
2019-03-20T05:23:02.457Z,28.73
2019-03-20T05:25:31.128Z,28.17
2019-03-20T05:27:59.765Z,29.23
2019-03-20T05:30:28.436Z,28.57
2019-03-20T05:32:57.268Z,28.52
2019-03-20T05:35:26.156Z,28.30
2019-03-20T05:37:54.761Z,28.47
2019-03-20T05:40:24.205Z,27.73
2019-03-20T05:42:52.939Z,29.10
2019-03-20T05:45:21.581Z,27.55
2019-03-20T05:47:50.255Z,28.85
2019-03-20T05:50:19.248Z,27.65
2019-03-20T05:52:47.917Z,28.52
2019-03-20T05:55:16.535Z,27.98
2019-03-20T05:57:45.216Z,28.30
2019-03-20T06:00:14.999Z,27.00
2019-03-20T06:02:43.921Z,27.15
2019-03-20T06:05:12.558Z,26.30
2019-03-20T06:07:41.241Z,27.00
2019-03-20T06:10:11.349Z,26.48
2019-03-20T06:12:40.251Z,26.60
2019-03-20T06:15:08.932Z,27.98
2019-03-20T06:17:37.548Z,26.20
2019-03-20T06:20:06.303Z,25.55
2019-03-20T06:22:34.920Z,25.95
2019-03-20T06:25:03.577Z,25.05
2019-03-20T06:27:32.261Z,25.45
2019-03-20T06:30:00.870Z,26.07
2019-03-20T06:32:29.553Z,25.23
2019-03-20T06:34:58.183Z,25.25
2019-03-20T06:37:32.518Z,25.12
2019-03-20T06:39:57.450Z,25.55
2019-03-20T06:42:26.646Z,26.60
2019-03-20T06:44:55.605Z,24.98
2019-03-20T06:47:24.458Z,25.70
2019-03-20T06:49:53.053Z,26.30
2019-03-20T06:52:21.745Z,25.20
2019-03-20T06:54:50.413Z,25.45
2019-03-20T06:57:19.030Z,25.08
2019-03-20T07:00:30.629Z,25.02
2019-03-20T07:03:01.375Z,25.77
2019-03-20T07:05:52.004Z,25.57
2019-03-20T07:08:22.277Z,25.43
2019-03-20T07:11:12.270Z,25.40
2019-03-20T07:13:40.956Z,24.35
2019-03-20T07:16:09.632Z,24.18
2019-03-20T07:18:38.300Z,24.77
2019-03-20T07:21:06.916Z,24.10
2019-03-20T07:23:35.521Z,25.52
2019-03-20T07:26:04.241Z,24.92
2019-03-20T07:28:32.934Z,23.90
2019-03-20T07:31:01.967Z,24.18
2019-03-20T07:33:30.901Z,24.90
2019-03-20T07:36:00.217Z,24.32
2019-03-20T07:38:28.804Z,23.40
2019-03-20T07:40:57.757Z,24.45
2019-03-20T07:43:27.110Z,24.55
2019-03-20T07:45:55.888Z,24.35
2019-03-20T07:48:24.484Z,22.75
2019-03-20T07:50:53.352Z,23.42
2019-03-20T07:53:22.217Z,23.80
2019-03-20T07:55:50.945Z,23.32
2019-03-20T07:58:19.852Z,22.30
2019-03-20T08:00:48.478Z,22.40
2019-03-20T08:03:17.168Z,22.17
2019-03-20T08:05:46.048Z,21.80
2019-03-20T08:08:14.649Z,21.82
2019-03-20T08:10:43.348Z,20.82
2019-03-20T08:13:12.046Z,21.45
2019-03-20T08:15:40.972Z,21.12
2019-03-20T08:18:09.573Z,20.92
2019-03-20T08:20:38.682Z,21.17
2019-03-20T08:23:07.542Z,21.10
2019-03-20T08:25:36.241Z,19.65
2019-03-20T08:28:04.939Z,18.37
2019-03-20T08:30:33.890Z,17.87
2019-03-20T08:33:02.557Z,15.48
2019-03-20T08:35:31.513Z,14.83
2019-03-20T08:38:00.180Z,14.18
2019-03-20T08:40:28.796Z,10.58
2019-03-20T08:42:57.629Z,7.90
2019-03-20T08:45:26.241Z,8.75
2019-03-20T10:06:34.800Z,5.90
2019-03-20T10:09:04.846Z,5.45
2019-03-20T10:11:33.466Z,6.10
2019-03-20T10:14:02.165Z,6.25
2019-03-20T10:16:30.870Z,5.58
2019-03-20T10:18:59.556Z,5.37
2019-03-20T10:21:28.245Z,5.80
2019-03-20T10:23:57.575Z,5.47
2019-03-20T10:26:26.877Z,5.92
2019-03-20T10:28:55.854Z,5.72
2019-03-20T10:31:24.550Z,5.05
2019-03-20T10:33:53.237Z,4.95
2019-03-20T10:36:22.037Z,5.33
2019-03-20T10:38:51.028Z,4.83
2019-03-20T10:41:19.816Z,4.65
2019-03-20T10:43:48.412Z,4.78
2019-03-20T10:46:17.037Z,4.97
2019-03-20T10:48:45.729Z,5.00
2019-03-20T10:51:14.411Z,5.05
2019-03-20T10:53:43.084Z,4.92
2019-03-20T10:56:11.705Z,4.42
2019-03-20T10:58:40.577Z,4.50
2019-03-20T11:01:09.193Z,4.65
2019-03-20T11:03:37.796Z,4.72
2019-03-20T11:06:06.441Z,4.78
2019-03-20T11:08:35.040Z,4.20
2019-03-20T11:11:03.926Z,4.55
2019-03-20T11:13:33.233Z,4.35
2019-03-20T11:16:01.961Z,4.30
2019-03-20T11:18:30.855Z,5.05
2019-03-20T11:21:00.109Z,4.30
2019-03-20T11:23:28.835Z,4.25
2019-03-20T11:25:59.908Z,4.83
2019-03-20T11:28:28.028Z,4.35
2019-03-20T11:30:56.721Z,4.75
2019-03-20T11:33:25.400Z,3.90
2019-03-20T11:35:54.369Z,4.05
2019-03-20T11:38:22.980Z,4.70
2019-03-20T11:40:51.967Z,4.37
2019-03-20T11:43:20.633Z,4.33
2019-03-20T11:45:49.340Z,4.42
2019-03-20T11:48:18.027Z,4.05
2019-03-20T11:50:47.005Z,4.60
2019-03-20T11:53:15.633Z,3.62
2019-03-20T11:55:44.338Z,4.42
2019-03-20T11:58:13.087Z,3.45
2019-03-20T12:00:41.721Z,3.98
2019-03-20T12:03:10.333Z,3.95
2019-03-20T12:05:39.032Z,4.05
2019-03-20T12:08:07.743Z,3.92
2019-03-20T12:10:36.640Z,3.70
2019-03-20T12:13:05.284Z,4.10
2019-03-20T12:15:34.277Z,3.75
2019-03-20T12:18:02.972Z,3.70
2019-03-20T12:20:31.680Z,3.67
2019-03-20T12:23:00.845Z,4.00
2019-03-20T12:25:29.837Z,4.25
2019-03-20T12:27:58.464Z,3.70
2019-03-20T12:30:28.280Z,3.90
2019-03-20T12:32:57.205Z,3.87
2019-03-20T12:35:27.130Z,3.90
2019-03-20T12:37:55.880Z,3.50
2019-03-20T12:40:26.225Z,4.10
2019-03-20T12:42:54.905Z,3.90
2019-03-20T12:45:28.289Z,3.45
2019-03-20T12:47:57.027Z,3.72
2019-03-20T12:50:25.833Z,3.27
2019-03-20T12:52:54.531Z,3.98
2019-03-20T12:55:23.482Z,3.85
2019-03-20T12:57:52.094Z,3.55
2019-03-20T13:00:21.841Z,3.72
2019-03-20T13:02:50.843Z,3.52
2019-03-20T13:05:19.857Z,3.62
2019-03-20T13:07:48.601Z,3.52
2019-03-20T13:10:18.722Z,3.65
2019-03-20T13:12:47.782Z,3.42
2019-03-20T13:15:18.289Z,3.15
2019-03-20T13:17:47.001Z,3.65
2019-03-20T13:20:16.096Z,3.22
2019-03-20T13:22:45.970Z,3.58
2019-03-20T13:25:15.210Z,3.12
2019-03-20T13:27:44.201Z,3.70
2019-03-20T13:30:20.406Z,3.40
2019-03-20T13:32:49.398Z,3.60
2019-03-20T13:35:18.359Z,3.72
2019-03-20T13:37:47.042Z,3.20
2019-03-20T13:40:15.740Z,3.15
2019-03-20T13:42:44.433Z,3.05
2019-03-20T13:45:14.400Z,3.05
2019-03-20T13:47:43.537Z,3.12
2019-03-20T13:50:13.475Z,3.67
2019-03-20T13:52:42.443Z,3.12
2019-03-20T13:55:11.193Z,3.55
2019-03-20T13:57:39.876Z,3.30
2019-03-20T14:00:16.559Z,3.17
2019-03-20T14:02:45.202Z,3.37
2019-03-20T14:05:14.570Z,3.17
2019-03-20T14:07:43.254Z,3.02
2019-03-20T14:10:24.306Z,2.70
2019-03-20T14:12:44.377Z,3.42
2019-03-20T14:15:13.291Z,2.83
2019-03-20T14:17:41.988Z,3.40
2019-03-20T14:20:13.065Z,2.72
2019-03-20T14:22:41.754Z,3.12
2019-03-20T14:25:10.708Z,3.25
2019-03-20T14:27:39.308Z,2.72
2019-03-20T14:30:11.949Z,3.25
2019-03-20T14:32:40.688Z,2.87
2019-03-20T14:35:09.318Z,2.80
2019-03-20T14:37:37.994Z,2.98
2019-03-20T14:40:07.362Z,2.85
2019-03-20T14:42:36.020Z,2.75
2019-03-20T14:45:04.780Z,3.35
2019-03-20T14:47:41.881Z,3.00
2019-03-20T14:50:04.641Z,2.92
2019-03-20T14:52:33.326Z,3.05
2019-03-20T14:55:01.994Z,2.85
2019-03-20T14:57:30.640Z,2.77
2019-03-20T14:59:59.261Z,2.72
2019-03-20T15:02:28.278Z,3.30
2019-03-20T15:04:57.017Z,3.20
2019-03-20T15:07:25.668Z,2.65
2019-03-20T15:09:54.285Z,2.65
2019-03-20T15:12:22.989Z,2.75
2019-03-20T15:14:51.716Z,2.85
2019-03-20T15:17:20.468Z,2.98
2019-03-20T15:19:49.594Z,3.37
2019-03-20T15:22:18.613Z,2.95
2019-03-20T15:24:47.308Z,3.02
2019-03-20T15:27:16.297Z,2.65
2019-03-20T15:29:44.973Z,2.92
2019-03-20T15:32:13.714Z,2.83
2019-03-20T15:34:42.382Z,2.77
2019-03-20T15:37:11.333Z,2.70
2019-03-20T15:39:39.941Z,2.83
2019-03-20T15:42:08.898Z,2.67
2019-03-20T15:44:37.581Z,2.27
2019-03-20T15:47:06.278Z,12.60
2019-03-20T15:49:35.261Z,15.70
2019-03-20T15:52:04.359Z,7.15
2019-03-20T15:54:33.052Z,27.73
2019-03-20T15:57:02.142Z,25.85
2019-03-20T15:59:30.938Z,22.98
2019-03-20T16:01:59.786Z,45.28
2019-03-20T16:04:28.814Z,32.30
2019-03-20T16:06:57.786Z,31.12
2019-03-20T16:09:26.433Z,28.62
2019-03-20T16:11:55.138Z,29.57
2019-03-20T16:14:23.817Z,30.88
2019-03-20T16:16:52.797Z,31.02
2019-03-20T16:19:21.520Z,30.02
2019-03-20T16:21:50.578Z,25.97
2019-03-20T16:24:19.190Z,23.20
2019-03-20T16:26:47.825Z,24.07
2019-03-20T16:29:16.879Z,25.05
2019-03-20T16:31:45.572Z,23.65
2019-03-20T16:34:14.181Z,23.52
2019-03-20T16:36:42.816Z,23.45
2019-03-20T16:39:11.733Z,21.00
2019-03-20T16:41:40.467Z,23.20
2019-03-20T16:44:09.484Z,19.73
2019-03-20T16:46:38.129Z,17.00
2019-03-20T16:49:06.757Z,18.82
2019-03-20T16:51:35.465Z,23.05
2019-03-20T16:54:04.364Z,22.55
2019-03-20T16:56:33.055Z,19.77
2019-03-20T16:59:02.005Z,21.48
2019-03-20T17:01:30.664Z,21.73
2019-03-20T17:03:59.273Z,20.97
2019-03-20T17:06:27.913Z,22.42
2019-03-20T17:08:56.576Z,17.50
2019-03-20T17:11:34.473Z,18.80
2019-03-20T17:13:56.193Z,18.02
2019-03-20T17:16:24.897Z,18.57
2019-03-20T17:18:53.797Z,14.58
2019-03-20T17:21:22.633Z,18.95
2019-03-20T17:23:51.730Z,15.53
2019-03-20T17:26:20.726Z,14.98
2019-03-20T17:28:49.724Z,13.65
2019-03-20T17:31:18.433Z,14.53
2019-03-20T17:33:47.048Z,15.23
2019-03-20T17:36:15.696Z,14.03
2019-03-20T17:38:44.772Z,13.80
2019-03-20T17:41:13.481Z,12.65
2019-03-20T17:43:42.449Z,12.05
2019-03-20T17:46:11.160Z,12.00
2019-03-20T17:48:40.117Z,11.25
2019-03-20T17:51:08.768Z,11.00
2019-03-20T17:53:37.418Z,11.25
2019-03-20T17:56:06.087Z,11.88
2019-03-20T17:58:34.785Z,12.25
2019-03-20T18:01:03.492Z,11.68
2019-03-20T18:03:32.769Z,11.60
2019-03-20T18:06:01.488Z,10.60
2019-03-20T18:08:30.253Z,11.10
2019-03-20T18:10:59.224Z,10.58
2019-03-20T18:13:27.853Z,11.35
2019-03-20T18:15:56.480Z,10.50
2019-03-20T18:18:25.094Z,9.80
2019-03-20T18:20:53.797Z,9.70
2019-03-20T18:23:22.496Z,10.75
2019-03-20T18:25:51.108Z,9.73
2019-03-20T18:28:21.691Z,9.63
2019-03-20T18:30:50.109Z,10.32
2019-03-20T18:33:18.800Z,10.08
2019-03-20T18:35:48.145Z,10.48
2019-03-20T18:38:17.153Z,10.15
2019-03-20T18:40:45.904Z,9.78
2019-03-20T18:43:14.646Z,9.30
2019-03-20T18:45:43.597Z,9.93
2019-03-20T18:48:12.589Z,9.00
2019-03-20T18:50:41.581Z,9.40
2019-03-20T18:53:10.476Z,9.68
2019-03-20T18:55:39.212Z,9.45
2019-03-20T18:58:07.964Z,9.20
2019-03-20T19:00:36.954Z,9.70
2019-03-20T19:03:06.325Z,9.65
2019-03-20T19:05:56.318Z,8.38
2019-03-20T19:08:25.336Z,8.40
2019-03-20T19:10:54.468Z,8.48
2019-03-20T19:13:24.529Z,8.28
2019-03-20T19:15:53.310Z,8.60
2019-03-20T19:18:21.983Z,8.35
2019-03-20T19:20:50.907Z,8.38
2019-03-20T19:23:19.898Z,8.13
2019-03-20T19:25:48.637Z,8.30
2019-03-20T19:28:17.681Z,8.10
2019-03-20T19:30:46.412Z,8.63
2019-03-20T19:33:15.025Z,8.15
2019-03-20T19:35:43.728Z,7.92
2019-03-20T19:38:12.413Z,7.17
2019-03-20T19:40:41.422Z,8.18
2019-03-20T19:43:10.354Z,7.92
2019-03-20T19:45:39.405Z,7.83
2019-03-20T19:48:08.091Z,7.22
2019-03-20T19:50:36.816Z,7.35
2019-03-20T19:53:05.720Z,8.18
2019-03-20T19:55:34.438Z,7.67
2019-03-20T19:58:03.164Z,7.12
2019-03-20T20:00:31.869Z,7.78
2019-03-20T20:03:00.658Z,7.85
2019-03-20T20:05:29.449Z,6.78
2019-03-20T20:07:58.093Z,6.87
2019-03-20T20:10:27.085Z,7.60
2019-03-20T20:12:55.776Z,7.25
2019-03-20T20:15:24.488Z,7.65
2019-03-20T20:17:53.468Z,6.80
2019-03-20T20:20:22.176Z,7.10
2019-03-20T20:22:50.849Z,7.30
2019-03-20T20:25:19.481Z,6.35
2019-03-20T20:27:48.162Z,7.05
2019-03-20T20:30:17.254Z,7.08
2019-03-20T20:32:45.941Z,6.97
2019-03-20T20:35:14.970Z,7.25
2019-03-20T20:37:43.642Z,6.78
2019-03-20T20:40:13.965Z,7.20
2019-03-20T20:42:43.442Z,6.67
2019-03-20T20:45:12.298Z,6.97
2019-03-20T20:47:40.893Z,7.08
2019-03-20T20:50:09.737Z,6.37
2019-03-20T20:52:38.637Z,6.47
2019-03-20T20:55:08.155Z,6.65
2019-03-20T20:57:36.842Z,6.42
2019-03-20T21:00:08.500Z,6.75
2019-03-20T21:02:37.195Z,6.92
2019-03-20T21:05:06.277Z,6.62
2019-03-20T21:07:35.270Z,6.25
2019-03-20T21:10:04.216Z,6.42
2019-03-20T21:12:33.153Z,6.28
2019-03-20T21:15:02.145Z,5.55
2019-03-20T21:17:59.349Z,5.80
2019-03-20T21:20:28.804Z,5.15
2019-03-20T21:23:48.489Z,5.87
2019-03-20T21:26:18.128Z,5.78
2019-03-20T21:29:24.701Z,6.72
2019-03-20T21:32:02.606Z,5.87
2019-03-20T21:35:02.306Z,5.70
2019-03-20T21:38:05.808Z,5.10
2019-03-20T21:41:06.621Z,4.83
2019-03-20T21:43:52.231Z,5.97
2019-03-20T21:47:09.444Z,5.62
2019-03-20T21:49:38.950Z,6.28
2019-03-20T21:52:08.188Z,5.45
2019-03-20T21:55:29.801Z,6.30
2019-03-20T21:58:13.011Z,6.25
2019-03-20T22:01:32.436Z,5.00
2019-03-20T22:04:01.592Z,5.97
2019-03-20T22:07:07.023Z,5.80
2019-03-20T22:10:19.514Z,5.20
2019-03-20T22:13:23.678Z,5.40
2019-03-20T22:16:14.837Z,5.60
2019-03-20T22:19:28.257Z,5.58
2019-03-20T22:22:34.599Z,5.47
2019-03-20T22:25:30.965Z,5.45
2019-03-20T22:28:26.624Z,5.42
2019-03-20T22:30:56.121Z,6.12
2019-03-20T22:34:01.216Z,5.22
2019-03-20T22:36:34.897Z,5.15
2019-03-20T22:39:40.786Z,4.45
2019-03-20T22:42:27.156Z,5.15
2019-03-20T22:45:18.069Z,4.80
2019-03-20T22:48:33.012Z,5.00
2019-03-20T22:51:37.301Z,5.15
2019-03-20T22:54:41.342Z,4.50
2019-03-20T22:57:21.980Z,4.65
2019-03-20T22:59:51.189Z,5.35
2019-03-20T23:02:34.792Z,4.42
2019-03-20T23:05:04.041Z,4.15
2019-03-20T23:07:33.545Z,4.50
2019-03-20T23:10:02.756Z,4.67
2019-03-20T23:12:32.247Z,4.50
2019-03-20T23:15:01.488Z,4.50
2019-03-20T23:17:30.697Z,5.10
2019-03-20T23:20:00.442Z,4.70
2019-03-20T23:22:29.777Z,4.20
2019-03-20T23:24:59.017Z,5.03
2019-03-20T23:27:29.832Z,4.17
2019-03-20T23:29:59.424Z,3.80
2019-03-20T23:32:29.265Z,4.42
2019-03-20T23:34:58.816Z,4.75
2019-03-20T23:37:28.036Z,4.67
2019-03-20T23:39:57.297Z,4.83
2019-03-20T23:42:27.050Z,4.28
2019-03-20T23:44:56.196Z,3.80
2019-03-20T23:47:33.579Z,4.22
2019-03-20T23:50:02.789Z,4.95
2019-03-20T23:52:32.304Z,4.25
2019-03-20T23:55:01.437Z,4.45
2019-03-20T23:57:30.925Z,4.62
